sensor_id;sensor_type;location;lat;lon;timestamp;pressure;altitude;pressure_sealevel;temperature;humidity
50592;BME280;36548;50.506;30.834;2023-08-08T00:00:12;99471.75;;;19.21;62.37
50592;BME280;36548;50.506;30.834;2023-08-08T00:01:23;99465.52;;;18.96;63.55
50592;BME280;36548;50.506;30.834;2023-08-08T00:02:32;99469.78;;;18.90;63.63
50592;BME280;36548;50.506;30.834;2023-08-08T00:03:42;99471.48;;;18.91;63.61
50592;BME280;36548;50.506;30.834;2023-08-08T00:04:51;99473.02;;;18.94;63.68
50592;BME280;36548;50.506;30.834;2023-08-08T00:05:59;99464.52;;;18.97;63.66
50592;BME280;36548;50.506;30.834;2023-08-08T00:07:09;99465.17;;;18.99;63.47
50592;BME280;36548;50.506;30.834;2023-08-08T00:08:19;99474.87;;;18.93;63.63
50592;BME280;36548;50.506;30.834;2023-08-08T00:09:53;99464.67;;;19.03;63.60
50592;BME280;36548;50.506;30.834;2023-08-08T00:11:02;99467.05;;;18.98;64.04
50592;BME280;36548;50.506;30.834;2023-08-08T00:12:12;99466.20;;;19.06;63.71
50592;BME280;36548;50.506;30.834;2023-08-08T00:13:21;99468.94;;;18.98;63.48
50592;BME280;36548;50.506;30.834;2023-08-08T00:14:30;99469.61;;;18.91;63.74
50592;BME280;36548;50.506;30.834;2023-08-08T00:15:39;99469.23;;;18.86;63.93
50592;BME280;36548;50.506;30.834;2023-08-08T00:16:50;99471.11;;;18.86;64.14
50592;BME280;36548;50.506;30.834;2023-08-08T00:17:59;99477.74;;;18.83;64.35
50592;BME280;36548;50.506;30.834;2023-08-08T00:19:07;99471.67;;;18.89;64.11
50592;BME280;36548;50.506;30.834;2023-08-08T00:20:16;99481.36;;;18.92;63.85
50592;BME280;36548;50.506;30.834;2023-08-08T00:21:31;99477.23;;;18.96;63.90
50592;BME280;36548;50.506;30.834;2023-08-08T00:22:41;99477.08;;;18.81;64.08
50592;BME280;36548;50.506;30.834;2023-08-08T00:23:51;99484.37;;;18.81;64.42
50592;BME280;36548;50.506;30.834;2023-08-08T00:25:00;99480.98;;;18.70;64.63
50592;BME280;36548;50.506;30.834;2023-08-08T00:26:15;99477.56;;;18.85;64.67
50592;BME280;36548;50.506;30.834;2023-08-08T00:27:24;99489.49;;;18.76;64.71
50592;BME280;36548;50.506;30.834;2023-08-08T00:28:33;99485.73;;;18.77;64.49
50592;BME280;36548;50.506;30.834;2023-08-08T00:29:42;99491.69;;;18.80;64.49
50592;BME280;36548;50.506;30.834;2023-08-08T00:30:52;99484.72;;;18.78;64.42
50592;BME280;36548;50.506;30.834;2023-08-08T00:32:03;99485.23;;;18.81;64.35
50592;BME280;36548;50.506;30.834;2023-08-08T00:33:11;99480.11;;;18.86;64.44
50592;BME280;36548;50.506;30.834;2023-08-08T00:34:21;99484.39;;;18.89;63.96
50592;BME280;36548;50.506;30.834;2023-08-08T00:35:31;99488.16;;;18.88;63.84
50592;BME280;36548;50.506;30.834;2023-08-08T00:36:41;99482.55;;;18.89;64.00
50592;BME280;36548;50.506;30.834;2023-08-08T00:37:50;99487.61;;;18.84;63.88
50592;BME280;36548;50.506;30.834;2023-08-08T00:39:00;99492.87;;;18.86;64.06
50592;BME280;36548;50.506;30.834;2023-08-08T00:40:10;99494.75;;;18.85;63.90
50592;BME280;36548;50.506;30.834;2023-08-08T00:42:36;99495.59;;;18.78;64.21
50592;BME280;36548;50.506;30.834;2023-08-08T00:43:45;99488.63;;;18.75;64.56
50592;BME280;36548;50.506;30.834;2023-08-08T00:44:54;99490.85;;;18.71;64.52
50592;BME280;36548;50.506;30.834;2023-08-08T00:46:07;99483.71;;;18.62;64.97
50592;BME280;36548;50.506;30.834;2023-08-08T00:47:16;99486.60;;;18.61;65.02
50592;BME280;36548;50.506;30.834;2023-08-08T00:48:25;99490.85;;;18.63;65.13
50592;BME280;36548;50.506;30.834;2023-08-08T00:49:36;99489.50;;;18.67;65.04
50592;BME280;36548;50.506;30.834;2023-08-08T00:50:47;99492.88;;;18.69;64.90
50592;BME280;36548;50.506;30.834;2023-08-08T00:51:58;99490.67;;;18.73;64.88
50592;BME280;36548;50.506;30.834;2023-08-08T00:53:09;99497.47;;;18.77;64.85
50592;BME280;36548;50.506;30.834;2023-08-08T00:54:20;99496.11;;;18.73;64.23
50592;BME280;36548;50.506;30.834;2023-08-08T00:55:31;99492.70;;;18.71;64.57
50592;BME280;36548;50.506;30.834;2023-08-08T00:56:42;99488.31;;;18.70;64.58
50592;BME280;36548;50.506;30.834;2023-08-08T00:57:53;99491.69;;;18.64;64.73
50592;BME280;36548;50.506;30.834;2023-08-08T00:59:04;99497.82;;;18.66;65.00
50592;BME280;36548;50.506;30.834;2023-08-08T01:00:15;99490.68;;;18.65;64.89
50592;BME280;36548;50.506;30.834;2023-08-08T01:01:26;99500.37;;;18.67;64.97
50592;BME280;36548;50.506;30.834;2023-08-08T01:02:35;99499.34;;;18.52;65.15
50592;BME280;36548;50.506;30.834;2023-08-08T01:03:45;99494.57;;;18.46;65.51
50592;BME280;36548;50.506;30.834;2023-08-08T01:04:56;99502.89;;;18.44;65.61
50592;BME280;36548;50.506;30.834;2023-08-08T01:06:10;99496.11;;;18.48;65.60
50592;BME280;36548;50.506;30.834;2023-08-08T01:08:45;99501.90;;;18.62;65.25
50592;BME280;36548;50.506;30.834;2023-08-08T01:09:54;99495.27;;;18.48;65.39
50592;BME280;36548;50.506;30.834;2023-08-08T01:11:03;99492.20;;;18.51;65.35
50592;BME280;36548;50.506;30.834;2023-08-08T01:12:13;99493.91;;;18.44;65.28
50592;BME280;36548;50.506;30.834;2023-08-08T01:13:23;99488.12;;;18.38;65.63
50592;BME280;36548;50.506;30.834;2023-08-08T01:14:33;99499.83;;;18.39;65.46
50592;BME280;36548;50.506;30.834;2023-08-08T01:15:44;99490.66;;;18.40;65.74
50592;BME280;36548;50.506;30.834;2023-08-08T01:16:55;99489.83;;;18.39;65.39
50592;BME280;36548;50.506;30.834;2023-08-08T01:18:08;99493.91;;;18.44;65.50
50592;BME280;36548;50.506;30.834;2023-08-08T01:19:22;99489.83;;;18.48;65.26
50592;BME280;36548;50.506;30.834;2023-08-08T01:20:31;99488.48;;;18.52;65.24
50592;BME280;36548;50.506;30.834;2023-08-08T01:21:42;99492.21;;;18.59;65.16
50592;BME280;36548;50.506;30.834;2023-08-08T01:22:58;99493.22;;;18.66;64.71
50592;BME280;36548;50.506;30.834;2023-08-08T01:25:31;99491.19;;;18.93;64.41
50592;BME280;36548;50.506;30.834;2023-08-08T01:26:42;99502.91;;;18.77;63.78
50592;BME280;36548;50.506;30.834;2023-08-08T01:27:51;99488.63;;;18.75;63.97
50592;BME280;36548;50.506;30.834;2023-08-08T01:29:00;99500.86;;;18.79;64.18
50592;BME280;36548;50.506;30.834;2023-08-08T01:30:10;99494.41;;;18.72;63.93
50592;BME280;36548;50.506;30.834;2023-08-08T01:31:25;99494.05;;;18.83;64.02
50592;BME280;36548;50.506;30.834;2023-08-08T01:32:33;99508.52;;;18.76;64.00
50592;BME280;36548;50.506;30.834;2023-08-08T01:33:42;99504.27;;;18.73;63.67
50592;BME280;36548;50.506;30.834;2023-08-08T01:34:52;99509.70;;;18.65;64.01
50592;BME280;36548;50.506;30.834;2023-08-08T01:36:06;99510.20;;;18.68;64.08
50592;BME280;36548;50.506;30.834;2023-08-08T01:38:30;99509.19;;;18.69;63.97
50592;BME280;36548;50.506;30.834;2023-08-08T01:39:39;99510.05;;;18.62;64.00
50592;BME280;36548;50.506;30.834;2023-08-08T01:40:52;99510.55;;;18.65;64.04
50592;BME280;36548;50.506;30.834;2023-08-08T01:42:03;99514.97;;;18.66;64.09
50592;BME280;36548;50.506;30.834;2023-08-08T01:43:14;99505.80;;;18.67;63.88
50592;BME280;36548;50.506;30.834;2023-08-08T01:44:24;99513.78;;;18.61;64.19
50592;BME280;36548;50.506;30.834;2023-08-08T01:45:36;99513.95;;;18.59;64.04
50592;BME280;36548;50.506;30.834;2023-08-08T01:46:46;99518.69;;;18.49;64.53
50592;BME280;36548;50.506;30.834;2023-08-08T01:47:55;99522.45;;;18.48;64.57
50592;BME280;36548;50.506;30.834;2023-08-08T01:49:04;99511.05;;;18.52;64.72
50592;BME280;36548;50.506;30.834;2023-08-08T01:50:14;99515.48;;;18.53;64.50
50592;BME280;36548;50.506;30.834;2023-08-08T01:51:25;99518.86;;;18.47;64.56
50592;BME280;36548;50.506;30.834;2023-08-08T01:52:36;99515.47;;;18.45;64.84
50592;BME280;36548;50.506;30.834;2023-08-08T01:53:44;99519.55;;;18.49;64.75
50592;BME280;36548;50.506;30.834;2023-08-08T01:54:53;99513.95;;;18.51;64.54
50592;BME280;36548;50.506;30.834;2023-08-08T01:57:20;99505.45;;;18.54;64.43
50592;BME280;36548;50.506;30.834;2023-08-08T01:58:30;99521.41;;;18.57;64.27
50592;BME280;36548;50.506;30.834;2023-08-08T01:59:41;99511.72;;;18.54;64.33
50592;BME280;36548;50.506;30.834;2023-08-08T02:00:52;99514.63;;;18.61;64.50
50592;BME280;36548;50.506;30.834;2023-08-08T02:02:03;99517.52;;;18.68;64.36
50592;BME280;36548;50.506;30.834;2023-08-08T02:03:14;99520.23;;;18.68;63.80
50592;BME280;36548;50.506;30.834;2023-08-08T02:04:25;99513.09;;;18.67;63.86
50592;BME280;36548;50.506;30.834;2023-08-08T02:05:34;99517.86;;;18.56;64.15
50592;BME280;36548;50.506;30.834;2023-08-08T02:06:47;99516.84;;;18.57;64.24
50592;BME280;36548;50.506;30.834;2023-08-08T02:07:56;99528.20;;;18.53;64.37
50592;BME280;36548;50.506;30.834;2023-08-08T02:09:05;99527.72;;;18.57;64.69
50592;BME280;36548;50.506;30.834;2023-08-08T02:10:16;99520.58;;;18.56;64.32
50592;BME280;36548;50.506;30.834;2023-08-08T02:11:27;99519.88;;;18.63;64.59
50592;BME280;36548;50.506;30.834;2023-08-08T02:12:43;99522.95;;;18.76;64.09
50592;BME280;36548;50.506;30.834;2023-08-08T02:13:52;99527.72;;;18.66;64.04
50592;BME280;36548;50.506;30.834;2023-08-08T02:15:01;99530.27;;;18.67;64.16
50592;BME280;36548;50.506;30.834;2023-08-08T02:16:09;99531.94;;;18.68;64.01
50592;BME280;36548;50.506;30.834;2023-08-08T02:17:18;99529.92;;;18.70;64.27
50592;BME280;36548;50.506;30.834;2023-08-08T02:18:28;99530.45;;;18.74;64.09
50592;BME280;36548;50.506;30.834;2023-08-08T02:19:37;99541.81;;;18.69;63.78
50592;BME280;36548;50.506;30.834;2023-08-08T02:20:53;99538.57;;;18.82;64.09
50592;BME280;36548;50.506;30.834;2023-08-08T02:22:04;99551.50;;;18.72;63.81
50592;BME280;36548;50.506;30.834;2023-08-08T02:23:13;99551.66;;;18.62;64.00
50592;BME280;36548;50.506;30.834;2023-08-08T02:24:22;99546.57;;;18.59;64.07
50592;BME280;36548;50.506;30.834;2023-08-08T02:25:31;99552.67;;;18.61;64.14
50592;BME280;36548;50.506;30.834;2023-08-08T02:26:41;99551.31;;;18.57;64.13
50592;BME280;36548;50.506;30.834;2023-08-08T02:27:50;99561.88;;;18.60;64.57
50592;BME280;36548;50.506;30.834;2023-08-08T02:28:59;99559.29;;;18.58;64.01
50592;BME280;36548;50.506;30.834;2023-08-08T02:30:09;99558.11;;;18.61;64.30
50592;BME280;36548;50.506;30.834;2023-08-08T02:31:19;99563.06;;;18.66;64.39
50592;BME280;36548;50.506;30.834;2023-08-08T02:32:32;99564.25;;;18.71;64.25
50592;BME280;36548;50.506;30.834;2023-08-08T02:33:40;99564.92;;;18.73;64.03
50592;BME280;36548;50.506;30.834;2023-08-08T02:34:50;99569.00;;;18.78;63.80
50592;BME280;36548;50.506;30.834;2023-08-08T02:36:01;99556.28;;;18.78;63.68
50592;BME280;36548;50.506;30.834;2023-08-08T02:37:10;99557.78;;;18.81;63.71
50592;BME280;36548;50.506;30.834;2023-08-08T02:38:21;99564.58;;;18.85;63.76
50592;BME280;36548;50.506;30.834;2023-08-08T02:39:31;99563.56;;;18.86;63.08
50592;BME280;36548;50.506;30.834;2023-08-08T02:40:40;99569.00;;;18.78;63.14
50592;BME280;36548;50.506;30.834;2023-08-08T02:41:49;99583.78;;;18.75;63.37
50592;BME280;36548;50.506;30.834;2023-08-08T02:43:05;99569.35;;;18.83;63.45
50592;BME280;36548;50.506;30.834;2023-08-08T02:44:14;99571.71;;;18.69;63.50
50592;BME280;36548;50.506;30.834;2023-08-08T02:45:23;99576.66;;;18.66;63.84
50592;BME280;36548;50.506;30.834;2023-08-08T02:46:33;99571.53;;;18.63;63.73
50592;BME280;36548;50.506;30.834;2023-08-08T02:47:41;99571.88;;;18.60;63.91
50592;BME280;36548;50.506;30.834;2023-08-08T02:48:52;99569.50;;;18.56;63.95
50592;BME280;36548;50.506;30.834;2023-08-08T02:50:01;99571.86;;;18.51;64.22
50592;BME280;36548;50.506;30.834;2023-08-08T02:51:11;99572.86;;;18.50;64.23
50592;BME280;36548;50.506;30.834;2023-08-08T02:52:21;99571.69;;;18.53;64.59
50592;BME280;36548;50.506;30.834;2023-08-08T02:53:31;99571.52;;;18.54;64.35
50592;BME280;36548;50.506;30.834;2023-08-08T02:54:40;99563.20;;;18.64;64.81
50592;BME280;36548;50.506;30.834;2023-08-08T02:55:50;99569.34;;;18.74;64.62
50592;BME280;36548;50.506;30.834;2023-08-08T02:56:59;99566.11;;;18.79;63.84
50592;BME280;36548;50.506;30.834;2023-08-08T02:58:14;99565.80;;;18.99;63.38
50592;BME280;36548;50.506;30.834;2023-08-08T02:59:23;99576.36;;;18.94;63.29
50592;BME280;36548;50.506;30.834;2023-08-08T03:00:34;99575.32;;;18.95;63.05
50592;BME280;36548;50.506;30.834;2023-08-08T03:01:44;99567.16;;;19.03;63.44
50592;BME280;36548;50.506;30.834;2023-08-08T03:02:55;99570.57;;;19.13;63.45
50592;BME280;36548;50.506;30.834;2023-08-08T03:04:11;99569.86;;;19.28;62.20
50592;BME280;36548;50.506;30.834;2023-08-08T03:05:22;99572.09;;;19.24;63.23
50592;BME280;36548;50.506;30.834;2023-08-08T03:06:31;99571.03;;;19.41;64.26
50592;BME280;36548;50.506;30.834;2023-08-08T03:07:41;99571.55;;;19.45;61.20
50592;BME280;36548;50.506;30.834;2023-08-08T03:08:50;99571.84;;;19.50;61.32
50592;BME280;36548;50.506;30.834;2023-08-08T03:10:00;99569.63;;;19.62;61.65
50592;BME280;36548;50.506;30.834;2023-08-08T03:11:14;99568.76;;;19.70;60.63
50592;BME280;36548;50.506;30.834;2023-08-08T03:12:25;99571.63;;;19.68;61.94
50592;BME280;36548;50.506;30.834;2023-08-08T03:13:34;99564.30;;;19.77;60.07
50592;BME280;36548;50.506;30.834;2023-08-08T03:14:44;99569.94;;;19.75;60.49
50592;BME280;36548;50.506;30.834;2023-08-08T03:15:54;99564.78;;;19.89;62.03
50592;BME280;36548;50.506;30.834;2023-08-08T03:17:05;99565.41;;;20.07;62.04
50592;BME280;36548;50.506;30.834;2023-08-08T03:18:14;99565.61;;;20.29;61.84
50592;BME280;36548;50.506;30.834;2023-08-08T03:19:24;99563.63;;;20.46;60.65
50592;BME280;36548;50.506;30.834;2023-08-08T03:20:32;99569.84;;;20.63;59.87
50592;BME280;36548;50.506;30.834;2023-08-08T03:21:43;99568.89;;;20.79;59.65
50592;BME280;36548;50.506;30.834;2023-08-08T03:22:52;99567.44;;;20.91;58.42
50592;BME280;36548;50.506;30.834;2023-08-08T03:24:02;99566.34;;;21.01;58.11
50592;BME280;36548;50.506;30.834;2023-08-08T03:25:11;99569.95;;;21.16;58.47
50592;BME280;36548;50.506;30.834;2023-08-08T03:26:22;99573.86;;;21.37;58.19
50592;BME280;36548;50.506;30.834;2023-08-08T03:27:31;99571.05;;;21.45;55.69
50592;BME280;36548;50.506;30.834;2023-08-08T03:28:46;99562.96;;;21.52;54.90
50592;BME280;36548;50.506;30.834;2023-08-08T03:29:57;99568.50;;;21.43;55.81
50592;BME280;36548;50.506;30.834;2023-08-08T03:31:08;99569.45;;;21.51;55.08
50592;BME280;36548;50.506;30.834;2023-08-08T03:32:17;99574.17;;;21.57;54.51
50592;BME280;36548;50.506;30.834;2023-08-08T03:33:26;99576.83;;;21.65;54.40
50592;BME280;36548;50.506;30.834;2023-08-08T03:34:35;99568.54;;;21.88;55.09
50592;BME280;36548;50.506;30.834;2023-08-08T03:35:45;99570.91;;;22.28;53.51
50592;BME280;36548;50.506;30.834;2023-08-08T03:36:56;99572.65;;;22.66;52.35
50592;BME280;36548;50.506;30.834;2023-08-08T03:38:04;99584.81;;;23.06;51.00
50592;BME280;36548;50.506;30.834;2023-08-08T03:39:14;99578.92;;;23.59;51.50
50592;BME280;36548;50.506;30.834;2023-08-08T03:40:24;99589.61;;;24.17;50.58
50592;BME280;36548;50.506;30.834;2023-08-08T03:41:33;99580.31;;;24.80;49.24
50592;BME280;36548;50.506;30.834;2023-08-08T03:42:42;99587.58;;;25.35;46.84
50592;BME280;36548;50.506;30.834;2023-08-08T03:43:52;99584.72;;;25.89;45.23
50592;BME280;36548;50.506;30.834;2023-08-08T03:45:04;99584.61;;;26.29;43.95
50592;BME280;36548;50.506;30.834;2023-08-08T03:46:14;99588.89;;;26.63;41.75
50592;BME280;36548;50.506;30.834;2023-08-08T03:47:29;99576.67;;;27.16;41.92
50592;BME280;36548;50.506;30.834;2023-08-08T03:48:39;99586.30;;;27.32;41.08
50592;BME280;36548;50.506;30.834;2023-08-08T03:49:48;99589.17;;;27.69;41.34
50592;BME280;36548;50.506;30.834;2023-08-08T03:50:58;99585.43;;;28.19;40.26
50592;BME280;36548;50.506;30.834;2023-08-08T03:52:13;99581.80;;;28.86;39.51
50592;BME280;36548;50.506;30.834;2023-08-08T03:53:23;99578.75;;;29.18;38.58
50592;BME280;36548;50.506;30.834;2023-08-08T03:54:32;99586.73;;;29.50;37.39
50592;BME280;36548;50.506;30.834;2023-08-08T03:55:41;99588.87;;;29.72;36.83
50592;BME280;36548;50.506;30.834;2023-08-08T03:56:57;99581.87;;;30.17;36.25
50592;BME280;36548;50.506;30.834;2023-08-08T03:58:08;99591.13;;;30.22;35.56
50592;BME280;36548;50.506;30.834;2023-08-08T03:59:18;99594.59;;;30.30;35.33
50592;BME280;36548;50.506;30.834;2023-08-08T04:00:27;99598.19;;;30.30;34.88
50592;BME280;36548;50.506;30.834;2023-08-08T04:01:36;99587.03;;;30.25;34.86
50592;BME280;36548;50.506;30.834;2023-08-08T04:02:47;99598.12;;;30.13;35.03
50592;BME280;36548;50.506;30.834;2023-08-08T04:03:56;99600.05;;;30.13;35.53
50592;BME280;36548;50.506;30.834;2023-08-08T04:05:05;99601.38;;;30.10;35.42
50592;BME280;36548;50.506;30.834;2023-08-08T04:06:14;99603.78;;;30.06;35.23
50592;BME280;36548;50.506;30.834;2023-08-08T04:07:24;99603.66;;;30.01;35.63
50592;BME280;36548;50.506;30.834;2023-08-08T04:08:32;99609.35;;;29.95;35.08
50592;BME280;36548;50.506;30.834;2023-08-08T04:09:43;99615.45;;;29.73;34.68
50592;BME280;36548;50.506;30.834;2023-08-08T04:10:52;99619.67;;;29.52;35.68
50592;BME280;36548;50.506;30.834;2023-08-08T04:12:01;99612.32;;;29.34;35.70
50592;BME280;36548;50.506;30.834;2023-08-08T04:13:11;99615.60;;;29.12;35.61
50592;BME280;36548;50.506;30.834;2023-08-08T04:14:19;99623.56;;;28.78;36.47
50592;BME280;36548;50.506;30.834;2023-08-08T04:15:28;99628.48;;;28.57;36.98
50592;BME280;36548;50.506;30.834;2023-08-08T04:16:38;99637.32;;;28.48;38.06
50592;BME280;36548;50.506;30.834;2023-08-08T04:17:51;99634.25;;;28.37;37.83
50592;BME280;36548;50.506;30.834;2023-08-08T04:19:00;99635.49;;;28.23;36.84
50592;BME280;36548;50.506;30.834;2023-08-08T04:20:10;99632.61;;;27.93;38.00
50592;BME280;36548;50.506;30.834;2023-08-08T04:21:19;99643.86;;;27.72;38.29
50592;BME280;36548;50.506;30.834;2023-08-08T04:22:28;99633.75;;;27.34;38.49
50592;BME280;36548;50.506;30.834;2023-08-08T04:23:38;99637.55;;;27.08;39.51
50592;BME280;36548;50.506;30.834;2023-08-08T04:24:47;99645.70;;;26.96;40.55
50592;BME280;36548;50.506;30.834;2023-08-08T04:26:03;99641.13;;;26.83;40.06
50592;BME280;36548;50.506;30.834;2023-08-08T04:27:11;99644.61;;;26.59;40.87
50592;BME280;36548;50.506;30.834;2023-08-08T04:28:20;99642.10;;;26.50;41.34
50592;BME280;36548;50.506;30.834;2023-08-08T04:29:30;99647.61;;;26.50;41.78
50592;BME280;36548;50.506;30.834;2023-08-08T04:30:39;99637.51;;;26.37;41.24
50592;BME280;36548;50.506;30.834;2023-08-08T04:31:49;99654.05;;;26.24;41.87
50592;BME280;36548;50.506;30.834;2023-08-08T04:32:57;99654.51;;;26.14;42.11
50592;BME280;36548;50.506;30.834;2023-08-08T04:34:06;99650.72;;;26.09;42.42
50592;BME280;36548;50.506;30.834;2023-08-08T04:35:16;99658.73;;;25.97;42.52
50592;BME280;36548;50.506;30.834;2023-08-08T04:36:33;99658.95;;;25.89;42.96
50592;BME280;36548;50.506;30.834;2023-08-08T04:37:41;99653.69;;;25.74;43.66
50592;BME280;36548;50.506;30.834;2023-08-08T04:38:50;99666.59;;;25.73;43.63
50592;BME280;36548;50.506;30.834;2023-08-08T04:39:59;99666.41;;;25.61;43.76
50592;BME280;36548;50.506;30.834;2023-08-08T04:41:09;99664.09;;;25.51;43.94
50592;BME280;36548;50.506;30.834;2023-08-08T04:42:19;99671.67;;;25.43;44.20
50592;BME280;36548;50.506;30.834;2023-08-08T04:43:34;99675.28;;;25.43;44.92
50592;BME280;36548;50.506;30.834;2023-08-08T04:44:42;99671.66;;;25.36;45.10
50592;BME280;36548;50.506;30.834;2023-08-08T04:45:53;99682.66;;;25.36;44.63
50592;BME280;36548;50.506;30.834;2023-08-08T04:47:02;99678.22;;;25.42;44.82
50592;BME280;36548;50.506;30.834;2023-08-08T04:48:11;99672.94;;;25.47;44.30
50592;BME280;36548;50.506;30.834;2023-08-08T04:49:21;99678.22;;;25.48;44.69
50592;BME280;36548;50.506;30.834;2023-08-08T04:50:30;99686.26;;;25.57;43.87
50592;BME280;36548;50.506;30.834;2023-08-08T04:51:39;99679.28;;;25.54;43.52
50592;BME280;36548;50.506;30.834;2023-08-08T04:52:47;99687.13;;;25.57;43.99
50592;BME280;36548;50.506;30.834;2023-08-08T04:53:57;99687.53;;;25.61;43.99
50592;BME280;36548;50.506;30.834;2023-08-08T04:55:06;99690.28;;;25.61;44.35
50592;BME280;36548;50.506;30.834;2023-08-08T04:56:16;99691.98;;;25.62;44.35
50592;BME280;36548;50.506;30.834;2023-08-08T04:57:25;99681.81;;;25.62;44.29
50592;BME280;36548;50.506;30.834;2023-08-08T04:58:37;99687.75;;;25.66;44.36
50592;BME280;36548;50.506;30.834;2023-08-08T04:59:46;99682.69;;;25.69;44.44
50592;BME280;36548;50.506;30.834;2023-08-08T05:00:55;99685.62;;;25.68;44.46
50592;BME280;36548;50.506;30.834;2023-08-08T05:02:11;99680.98;;;25.75;44.27
50592;BME280;36548;50.506;30.834;2023-08-08T05:03:20;99686.27;;;25.70;44.41
50592;BME280;36548;50.506;30.834;2023-08-08T05:04:30;99683.09;;;25.73;44.31
50592;BME280;36548;50.506;30.834;2023-08-08T05:05:39;99684.35;;;25.70;43.92
50592;BME280;36548;50.506;30.834;2023-08-08T05:06:48;99678.45;;;25.67;44.04
50592;BME280;36548;50.506;30.834;2023-08-08T05:08:03;99679.72;;;25.64;43.63
50592;BME280;36548;50.506;30.834;2023-08-08T05:09:12;99684.17;;;25.65;44.02
50592;BME280;36548;50.506;30.834;2023-08-08T05:10:22;99684.56;;;25.62;43.29
50592;BME280;36548;50.506;30.834;2023-08-08T05:11:37;99671.88;;;25.75;43.31
50592;BME280;36548;50.506;30.834;2023-08-08T05:12:47;99682.88;;;25.68;43.53
50592;BME280;36548;50.506;30.834;2023-08-08T05:14:02;99679.08;;;25.76;43.53
50592;BME280;36548;50.506;30.834;2023-08-08T05:15:11;99680.34;;;25.66;43.50
50592;BME280;36548;50.506;30.834;2023-08-08T05:16:21;99688.19;;;25.69;43.62
50592;BME280;36548;50.506;30.834;2023-08-08T05:17:32;99684.57;;;25.69;43.34
50592;BME280;36548;50.506;30.834;2023-08-08T05:18:43;99689.64;;;25.79;43.54
50592;BME280;36548;50.506;30.834;2023-08-08T05:20:00;99679.69;;;25.91;42.87
50592;BME280;36548;50.506;30.834;2023-08-08T05:21:09;99681.83;;;25.76;42.68
50592;BME280;36548;50.506;30.834;2023-08-08T05:22:18;99681.83;;;25.76;42.68
50592;BME280;36548;50.506;30.834;2023-08-08T05:23:28;99685.00;;;25.73;42.77
50592;BME280;36548;50.506;30.834;2023-08-08T05:24:37;99689.64;;;25.85;43.29
50592;BME280;36548;50.506;30.834;2023-08-08T05:25:52;99685.20;;;26.05;43.07
50592;BME280;36548;50.506;30.834;2023-08-08T05:27:01;99684.77;;;26.08;42.41
50592;BME280;36548;50.506;30.834;2023-08-08T05:28:11;99684.98;;;26.13;42.21
50592;BME280;36548;50.506;30.834;2023-08-08T05:29:20;99685.80;;;26.20;42.14
50592;BME280;36548;50.506;30.834;2023-08-08T05:30:29;99692.80;;;26.16;41.76
50592;BME280;36548;50.506;30.834;2023-08-08T05:31:44;99688.55;;;26.27;42.18
50592;BME280;36548;50.506;30.834;2023-08-08T05:32:52;99692.78;;;26.23;41.84
50592;BME280;36548;50.506;30.834;2023-08-08T05:34:02;99698.06;;;26.24;41.63
50592;BME280;36548;50.506;30.834;2023-08-08T05:35:11;99689.83;;;26.17;41.75
50592;BME280;36548;50.506;30.834;2023-08-08T05:36:21;99700.83;;;26.17;41.43
50592;BME280;36548;50.506;30.834;2023-08-08T05:37:30;99692.80;;;26.09;41.84
50592;BME280;36548;50.506;30.834;2023-08-08T05:38:40;99690.48;;;26.06;41.75
50592;BME280;36548;50.506;30.834;2023-08-08T05:39:57;99701.27;;;26.14;41.82
50592;BME280;36548;50.506;30.834;2023-08-08T05:41:06;99698.74;;;26.06;41.80
50592;BME280;36548;50.506;30.834;2023-08-08T05:42:22;99695.31;;;26.24;41.83
50592;BME280;36548;50.506;30.834;2023-08-08T05:43:30;99694.50;;;26.17;41.79
50592;BME280;36548;50.506;30.834;2023-08-08T05:44:40;99703.36;;;26.19;41.44
50592;BME280;36548;50.506;30.834;2023-08-08T05:45:53;99696.14;;;26.31;41.47
50592;BME280;36548;50.506;30.834;2023-08-08T05:47:02;99694.41;;;26.44;41.42
50592;BME280;36548;50.506;30.834;2023-08-08T05:48:13;99698.18;;;26.56;41.23
50592;BME280;36548;50.506;30.834;2023-08-08T05:49:21;99702.59;;;26.70;40.66
50592;BME280;36548;50.506;30.834;2023-08-08T05:50:38;99697.00;;;26.91;40.87
50592;BME280;36548;50.506;30.834;2023-08-08T05:51:47;99694.47;;;26.89;39.61
50592;BME280;36548;50.506;30.834;2023-08-08T05:52:56;99709.88;;;26.97;39.94
50592;BME280;36548;50.506;30.834;2023-08-08T05:54:11;99704.11;;;27.05;39.16
50592;BME280;36548;50.506;30.834;2023-08-08T05:55:21;99706.09;;;26.91;38.62
50592;BME280;36548;50.506;30.834;2023-08-08T05:56:34;99703.45;;;26.71;39.31
50592;BME280;36548;50.506;30.834;2023-08-08T05:57:45;99699.59;;;26.79;39.63
50592;BME280;36548;50.506;30.834;2023-08-08T05:58:55;99707.59;;;26.87;39.46
50592;BME280;36548;50.506;30.834;2023-08-08T06:00:10;99699.50;;;26.99;38.69
50592;BME280;36548;50.506;30.834;2023-08-08T06:01:23;99710.35;;;26.87;38.81
50592;BME280;36548;50.506;30.834;2023-08-08T06:02:32;99700.62;;;26.84;39.21
50592;BME280;36548;50.506;30.834;2023-08-08T06:03:41;99701.89;;;26.82;39.08
50592;BME280;36548;50.506;30.834;2023-08-08T06:04:52;99719.91;;;26.78;38.89
50592;BME280;36548;50.506;30.834;2023-08-08T06:06:02;99696.45;;;26.75;39.24
50592;BME280;36548;50.506;30.834;2023-08-08T06:07:18;99697.00;;;26.91;39.12
50592;BME280;36548;50.506;30.834;2023-08-08T06:08:29;99704.27;;;26.78;38.95
50592;BME280;36548;50.506;30.834;2023-08-08T06:09:45;99705.67;;;26.87;39.10
50592;BME280;36548;50.506;30.834;2023-08-08T06:10:54;99700.86;;;26.76;39.28
50592;BME280;36548;50.506;30.834;2023-08-08T06:12:09;99704.23;;;26.85;39.16
50592;BME280;36548;50.506;30.834;2023-08-08T06:13:17;99709.34;;;26.75;39.53
50592;BME280;36548;50.506;30.834;2023-08-08T06:14:28;99705.95;;;26.79;39.77